Time;durP1;ratioP1;P1;durP2;ratioP2;P2;SDS_P1;SDS_P2;PMS_P1;PMS_P2;Temp;Humidity;BMP_temperature;BMP_pressure;BME280_temperature;BME280_humidity;BME280_pressure;Samples;Min_cycle;Max_cycle;Signal;HPM_P1;HPM_P2
2024/01/11 00:02:24;;;;;;;142.83;133.20;;;-6.00;99.90;;;;;;5080634;28;20470;-74
2024/01/11 00:04:50;;;;;;;163.82;153.18;;;-6.00;99.90;;;;;;5083954;28;20036;-73
2024/01/11 00:07:15;;;;;;;233.53;218.97;;;-6.00;99.90;;;;;;5066725;28;20557;-74
2024/01/11 00:09:42;;;;;;;213.87;199.90;;;-6.00;99.90;;;;;;5088952;28;20040;-74
2024/01/11 00:12:08;;;;;;;138.85;129.25;;;-6.10;99.90;;;;;;5082221;28;20082;-74
2024/01/11 00:14:35;;;;;;;126.20;117.03;;;-6.10;99.90;;;;;;5061078;28;20032;-74
2024/01/11 00:17:01;;;;;;;113.30;104.85;;;-6.10;99.90;;;;;;5079272;28;20058;-74
2024/01/11 00:19:26;;;;;;;124.43;115.20;;;-6.10;99.90;;;;;;5074433;28;20041;-74
2024/01/11 00:21:52;;;;;;;120.43;111.90;;;-6.10;99.90;;;;;;5084217;28;20114;-74
2024/01/11 00:24:18;;;;;;;176.23;165.00;;;-6.20;99.90;;;;;;5077827;28;20479;-74
2024/01/11 00:26:44;;;;;;;118.67;110.27;;;-6.10;99.90;;;;;;5072819;28;20337;-74
2024/01/11 00:29:10;;;;;;;105.57;97.60;;;-6.10;99.90;;;;;;5065935;28;20101;-73
2024/01/11 00:31:35;;;;;;;115.17;106.53;;;-6.10;99.90;;;;;;5078254;28;20044;-74
2024/01/11 00:34:01;;;;;;;130.68;121.22;;;-6.10;99.90;;;;;;5082583;28;20077;-74
2024/01/11 00:36:28;;;;;;;209.63;195.37;;;-6.10;99.90;;;;;;5080595;28;20463;-74
2024/01/11 00:38:54;;;;;;;115.70;107.35;;;-6.10;99.90;;;;;;5082905;28;20072;-74
2024/01/11 00:41:20;;;;;;;140.77;130.80;;;-6.00;99.90;;;;;;5075403;28;20079;-74
2024/01/11 00:43:45;;;;;;;121.30;112.20;;;-6.10;99.90;;;;;;5059298;28;20267;-74
2024/01/11 00:46:11;;;;;;;154.27;143.53;;;-6.10;99.90;;;;;;5082006;28;20045;-74
2024/01/11 00:48:37;;;;;;;141.47;131.20;;;-6.10;99.90;;;;;;5075088;28;20115;-74
2024/01/11 00:51:06;;;;;;;152.93;142.18;;;-6.10;99.90;;;;;;5077698;28;20045;-74
2024/01/11 00:53:33;;;;;;;137.07;127.25;;;-6.10;99.90;;;;;;5062165;28;20051;-73
2024/01/11 00:55:59;;;;;;;104.70;96.47;;;-6.00;99.90;;;;;;5082477;28;20040;-73
2024/01/11 00:58:25;;;;;;;128.05;118.60;;;-6.10;99.90;;;;;;5066291;28;20036;-74
2024/01/11 01:00:52;;;;;;;124.27;114.93;;;-6.10;99.90;;;;;;5073647;28;20032;-74
2024/01/11 01:03:21;;;;;;;114.38;105.88;;;-6.10;99.90;;;;;;5081458;28;20119;-73
2024/01/11 01:05:47;;;;;;;140.15;130.23;;;-6.10;99.90;;;;;;5083779;28;20193;-74
2024/01/11 01:08:13;;;;;;;113.60;104.87;;;-6.10;99.90;;;;;;5081704;28;20127;-74
2024/01/11 01:10:39;;;;;;;109.83;101.53;;;-6.10;99.90;;;;;;5073267;28;20036;-74
2024/01/11 01:13:04;;;;;;;112.43;103.67;;;-6.10;99.90;;;;;;5061811;28;20286;-74
2024/01/11 01:15:30;;;;;;;157.10;145.45;;;-6.10;99.90;;;;;;5083744;28;20402;-74
2024/01/11 01:17:56;;;;;;;97.13;88.80;;;-6.10;99.90;;;;;;5083858;28;20024;-75
2024/01/11 01:20:22;;;;;;;102.93;94.17;;;-6.10;99.90;;;;;;5075432;28;20036;-74
2024/01/11 01:22:49;;;;;;;104.80;96.32;;;-6.10;99.90;;;;;;5073350;28;20123;-75
2024/01/11 01:25:14;;;;;;;134.18;124.32;;;-6.10;99.90;;;;;;5082218;28;20044;-74
2024/01/11 01:27:40;;;;;;;107.87;98.93;;;-6.00;99.90;;;;;;5063491;28;20042;-75
2024/01/11 01:30:06;;;;;;;114.57;105.57;;;-6.00;99.90;;;;;;5071096;28;20040;-74
2024/01/11 01:32:32;;;;;;;113.60;104.63;;;-6.10;99.90;;;;;;5061259;28;20043;-75
2024/01/11 01:34:58;;;;;;;104.28;95.68;;;-6.10;99.90;;;;;;5083488;28;20032;-75
2024/01/11 01:37:24;;;;;;;118.17;108.50;;;-6.20;99.90;;;;;;5063889;28;20416;-75
2024/01/11 01:39:49;;;;;;;128.80;119.13;;;-6.20;99.90;;;;;;5080908;28;20045;-75
2024/01/11 01:42:15;;;;;;;121.50;112.20;;;-6.30;99.90;;;;;;5064265;28;20071;-75
2024/01/11 01:44:41;;;;;;;120.93;111.43;;;-6.20;99.90;;;;;;5083739;28;20490;-75
2024/01/11 01:47:08;;;;;;;126.57;117.07;;;-6.30;99.90;;;;;;5063569;28;20032;-74
2024/01/11 01:49:35;;;;;;;100.60;92.22;;;-6.30;99.90;;;;;;5085232;28;20127;-75
2024/01/11 01:52:03;;;;;;;107.55;98.90;;;-6.30;99.90;;;;;;5062163;28;20047;-75
2024/01/11 01:54:29;;;;;;;97.88;89.60;;;-6.40;99.90;;;;;;5087380;28;20047;-74
2024/01/11 01:56:56;;;;;;;127.97;118.10;;;-6.30;99.90;;;;;;5064044;28;20044;-75
2024/01/11 01:59:23;;;;;;;107.78;98.90;;;-6.30;99.90;;;;;;5091318;28;20056;-75
2024/01/11 02:01:49;;;;;;;114.95;105.63;;;-6.30;99.90;;;;;;5082218;28;20489;-74
2024/01/11 02:04:15;;;;;;;116.28;107.25;;;-6.30;99.90;;;;;;5083791;28;20042;-75
2024/01/11 02:06:44;;;;;;;103.70;94.97;;;-6.30;99.90;;;;;;5081416;28;20114;-75
2024/01/11 02:09:11;;;;;;;108.07;99.03;;;-6.30;99.90;;;;;;5078283;28;20032;-75
2024/01/11 02:11:39;;;;;;;125.88;115.95;;;-6.30;99.90;;;;;;5081868;28;20095;-75
2024/01/11 02:14:04;;;;;;;125.07;115.45;;;-6.30;99.90;;;;;;5080703;28;20406;-75
2024/01/11 02:16:30;;;;;;;112.00;103.10;;;-6.40;99.90;;;;;;5080142;28;20036;-75
2024/01/11 02:18:56;;;;;;;115.50;105.97;;;-6.40;99.90;;;;;;5077842;28;20042;-74
2024/01/11 02:21:23;;;;;;;127.37;117.23;;;-6.40;99.90;;;;;;5076714;28;20048;-75
2024/01/11 02:24:06;;;;;;;131.20;120.85;;;-6.40;99.90;;;;;;5076433;28;20058;-73
2024/01/11 02:26:32;;;;;;;127.28;117.55;;;-6.50;99.90;;;;;;5077257;28;20046;-72
2024/01/11 02:28:58;;;;;;;125.32;115.32;;;-6.50;99.90;;;;;;5063901;28;20523;-73
2024/01/11 02:31:24;;;;;;;122.80;113.03;;;-6.50;99.90;;;;;;5080257;28;20093;-73
2024/01/11 02:33:52;;;;;;;115.70;106.28;;;-6.50;99.90;;;;;;5064756;28;20452;-73
2024/01/11 02:36:19;;;;;;;113.35;103.97;;;-6.50;99.90;;;;;;5057920;28;20051;-73
2024/01/11 02:38:45;;;;;;;118.90;109.50;;;-6.50;99.90;;;;;;5077394;28;20043;-73
2024/01/11 02:41:14;;;;;;;118.03;108.60;;;-6.50;99.90;;;;;;5065515;28;20032;-73
2024/01/11 02:43:39;;;;;;;111.97;102.50;;;-6.50;99.90;;;;;;5077905;28;20371;-73
2024/01/11 02:46:05;;;;;;;109.03;99.70;;;-6.60;99.90;;;;;;5086720;28;20056;-73
2024/01/11 02:48:31;;;;;;;106.37;97.07;;;-6.60;99.90;;;;;;5087504;28;20046;-73
2024/01/11 02:50:57;;;;;;;103.03;94.13;;;-6.60;99.90;;;;;;5059009;28;20036;-74
2024/01/11 02:53:23;;;;;;;106.63;97.85;;;-6.70;99.90;;;;;;5078442;28;20040;-73
2024/01/11 02:55:50;;;;;;;107.90;98.65;;;-6.80;99.90;;;;;;5074315;28;20028;-73
2024/01/11 02:58:16;;;;;;;102.97;94.25;;;-6.80;99.90;;;;;;5084037;28;20051;-74
2024/01/11 03:00:42;;;;;;;96.40;87.60;;;-6.80;99.90;;;;;;5082597;28;20054;-73
2024/01/11 03:03:07;;;;;;;98.73;89.97;;;-6.90;99.90;;;;;;5066441;28;20486;-74
2024/01/11 03:05:33;;;;;;;85.23;77.73;;;-6.90;99.90;;;;;;5080892;28;20086;-73
2024/01/11 03:07:59;;;;;;;102.33;93.67;;;-7.00;99.90;;;;;;5076194;28;20028;-73
2024/01/11 03:10:25;;;;;;;107.80;98.77;;;-7.00;99.90;;;;;;5070344;28;20089;-73
2024/01/11 03:12:50;;;;;;;99.37;91.03;;;-7.10;99.90;;;;;;5064132;28;20413;-73
2024/01/11 03:15:16;;;;;;;110.87;101.90;;;-7.10;99.90;;;;;;5076277;28;20048;-74
2024/01/11 03:17:42;;;;;;;120.60;110.97;;;-7.10;99.90;;;;;;5058173;28;20083;-73
2024/01/11 03:20:08;;;;;;;111.93;103.57;;;-7.20;99.90;;;;;;5071726;28;20041;-73
2024/01/11 03:22:34;;;;;;;121.38;111.10;;;-7.20;99.90;;;;;;5073170;28;20120;-73
2024/01/11 03:25:00;;;;;;;113.53;104.37;;;-7.20;99.90;;;;;;5061722;28;20068;-74
2024/01/11 03:27:25;;;;;;;109.53;100.60;;;-7.30;99.90;;;;;;5066500;28;20036;-73
2024/01/11 03:29:51;;;;;;;119.67;110.10;;;-7.30;99.90;;;;;;5087800;28;20039;-73
2024/01/11 03:32:17;;;;;;;116.03;106.80;;;-7.30;99.90;;;;;;5085233;28;20421;-73
2024/01/11 03:34:42;;;;;;;114.60;105.27;;;-7.40;99.90;;;;;;5078036;28;20036;-73
2024/01/11 03:37:08;;;;;;;125.63;116.07;;;-7.40;99.90;;;;;;5080493;28;20116;-73
2024/01/11 03:39:34;;;;;;;127.43;117.87;;;-7.40;99.90;;;;;;5076355;28;20041;-74
2024/01/11 03:42:00;;;;;;;132.73;122.20;;;-7.40;99.90;;;;;;5068263;28;20036;-73
2024/01/11 03:44:26;;;;;;;126.07;116.00;;;-7.40;99.90;;;;;;5058624;28;20094;-73
2024/01/11 03:46:51;;;;;;;117.30;107.87;;;-7.40;99.90;;;;;;5085078;28;20040;-73
2024/01/11 03:49:17;;;;;;;113.60;104.37;;;-7.40;99.90;;;;;;5076960;28;20074;-74
2024/01/11 03:51:44;;;;;;;122.77;112.87;;;-7.40;99.90;;;;;;5075768;28;20036;-73
2024/01/11 03:54:10;;;;;;;115.07;105.45;;;-7.40;99.90;;;;;;5073290;28;20788;-73
2024/01/11 03:56:39;;;;;;;132.30;122.10;;;-7.40;99.90;;;;;;5082374;28;20047;-74
2024/01/11 03:59:06;;;;;;;130.25;119.72;;;-7.40;99.90;;;;;;5078629;28;20032;-73
2024/01/11 04:01:32;;;;;;;131.38;120.75;;;-7.40;99.90;;;;;;5073827;28;20072;-73
2024/01/11 04:03:58;;;;;;;129.27;118.68;;;-7.50;99.90;;;;;;5080664;28;20040;-73
2024/01/11 04:06:24;;;;;;;132.57;121.80;;;-7.50;99.90;;;;;;5058779;28;20040;-73
2024/01/11 04:08:50;;;;;;;135.75;125.07;;;-7.50;99.90;;;;;;5083619;28;20082;-73
2024/01/11 04:11:17;;;;;;;118.30;108.07;;;-7.50;99.90;;;;;;5081421;28;20068;-73
2024/01/11 04:13:43;;;;;;;122.30;112.25;;;-7.50;99.90;;;;;;5061680;28;20051;-74
2024/01/11 04:16:08;;;;;;;119.43;109.63;;;-7.60;99.90;;;;;;5076683;28;20406;-74
2024/01/11 04:18:34;;;;;;;118.40;108.37;;;-7.60;99.90;;;;;;5069976;28;20051;-74
2024/01/11 04:21:00;;;;;;;114.20;104.63;;;-7.60;99.90;;;;;;5078024;28;20075;-74
2024/01/11 04:23:26;;;;;;;119.10;109.07;;;-7.60;99.90;;;;;;5073376;28;20409;-74
2024/01/11 04:25:52;;;;;;;119.10;108.78;;;-7.60;99.90;;;;;;5075886;28;20044;-73
2024/01/11 04:28:18;;;;;;;122.77;112.90;;;-7.60;99.90;;;;;;5060118;28;20040;-73
2024/01/11 04:30:44;;;;;;;117.53;107.15;;;-7.60;99.90;;;;;;5080655;28;20075;-73
2024/01/11 04:33:10;;;;;;;139.53;128.90;;;-7.60;99.90;;;;;;5068416;28;20076;-74
2024/01/11 04:35:36;;;;;;;122.03;111.90;;;-7.60;99.90;;;;;;5077190;28;20051;-74
2024/01/11 04:38:02;;;;;;;130.02;119.28;;;-7.60;99.90;;;;;;5078253;28;20048;-74
2024/01/11 04:40:28;;;;;;;125.65;116.03;;;-7.60;99.90;;;;;;5079837;28;20101;-74
2024/01/11 04:42:53;;;;;;;121.83;111.80;;;-7.60;99.90;;;;;;5065316;28;20520;-74
2024/01/11 04:45:19;;;;;;;134.83;124.13;;;-7.60;99.90;;;;;;5066465;28;20621;-73
2024/01/11 04:47:45;;;;;;;125.93;115.90;;;-7.60;99.90;;;;;;5070735;28;20044;-74
2024/01/11 04:50:11;;;;;;;126.40;116.77;;;-7.60;99.90;;;;;;5080535;28;20573;-74
2024/01/11 04:52:36;;;;;;;135.80;125.40;;;-7.60;99.90;;;;;;5059752;28;20032;-74
2024/01/11 04:55:02;;;;;;;134.03;123.47;;;-7.60;99.90;;;;;;5083170;28;20043;-74
2024/01/11 04:57:28;;;;;;;121.40;111.90;;;-7.60;99.90;;;;;;5065810;28;20036;-73
2024/01/11 04:59:54;;;;;;;110.77;101.23;;;-7.60;99.90;;;;;;5079383;28;20525;-74
2024/01/11 05:02:22;;;;;;;117.67;108.17;;;-7.60;99.90;;;;;;5082212;28;20033;-74
2024/01/11 05:04:48;;;;;;;103.20;93.88;;;-7.60;99.90;;;;;;5082106;28;20494;-74
2024/01/11 05:07:14;;;;;;;84.60;75.90;;;-7.50;99.90;;;;;;5073039;28;20054;-74
2024/01/11 05:09:40;;;;;;;78.87;70.77;;;-7.40;99.90;;;;;;5074927;28;20052;-74
2024/01/11 05:12:06;;;;;;;92.87;84.00;;;-7.40;99.90;;;;;;5081381;28;20409;-74
2024/01/11 05:14:31;;;;;;;120.57;110.68;;;-7.20;99.90;;;;;;5060947;28;20091;-74
2024/01/11 05:16:57;;;;;;;130.37;119.83;;;-7.10;99.90;;;;;;5078125;28;20518;-74
2024/01/11 05:19:23;;;;;;;153.43;141.57;;;-7.00;99.90;;;;;;5083132;28;20036;-74
2024/01/11 05:21:49;;;;;;;144.73;133.30;;;-6.80;99.90;;;;;;5071080;28;20040;-74
2024/01/11 05:24:14;;;;;;;141.83;130.37;;;-6.60;99.90;;;;;;5081100;28;20088;-74
2024/01/11 05:26:40;;;;;;;125.93;115.50;;;-6.50;99.90;;;;;;5061498;28;20040;-74
2024/01/11 05:29:06;;;;;;;123.23;112.43;;;-6.40;99.90;;;;;;5083282;28;20554;-74
2024/01/11 05:31:31;;;;;;;135.30;123.13;;;-6.20;99.90;;;;;;5060499;28;20087;-74
2024/01/11 05:33:57;;;;;;;141.90;129.93;;;-6.10;99.90;;;;;;5070746;28;20040;-73
2024/01/11 05:36:23;;;;;;;131.67;120.67;;;-6.00;99.90;;;;;;5059853;28;20032;-74
2024/01/11 05:38:49;;;;;;;141.10;129.40;;;-5.90;99.90;;;;;;5065717;28;20129;-74
2024/01/11 05:41:15;;;;;;;133.97;122.93;;;-5.80;99.90;;;;;;5081032;28;20278;-74
2024/01/11 05:43:42;;;;;;;130.77;119.53;;;-5.70;99.90;;;;;;5062564;28;20032;-74
2024/01/11 05:46:08;;;;;;;118.95;108.53;;;-5.70;99.90;;;;;;5077543;28;20588;-74
2024/01/11 05:48:33;;;;;;;134.00;122.67;;;-5.60;99.90;;;;;;5064207;28;20513;-74
2024/01/11 05:50:59;;;;;;;152.70;140.43;;;-5.50;99.90;;;;;;5083470;28;20087;-73
2024/01/11 05:53:27;;;;;;;145.75;134.00;;;-5.40;99.90;;;;;;5061549;28;20515;-73
2024/01/11 05:55:53;;;;;;;130.77;120.40;;;-5.30;99.90;;;;;;5072798;28;20131;-74
2024/01/11 05:58:19;;;;;;;131.02;120.35;;;-5.30;99.90;;;;;;5065681;28;20075;-73
2024/01/11 06:00:46;;;;;;;128.50;117.25;;;-5.20;99.90;;;;;;5080910;28;20445;-74
2024/01/11 06:03:15;;;;;;;136.10;124.78;;;-5.10;99.90;;;;;;5059469;28;20117;-73
2024/01/11 06:05:40;;;;;;;130.25;119.57;;;-5.00;99.90;;;;;;5078108;28;20170;-73
2024/01/11 06:08:06;;;;;;;138.37;127.30;;;-5.00;99.90;;;;;;5090607;28;20118;-73
2024/01/11 06:10:33;;;;;;;131.77;120.85;;;-4.90;99.90;;;;;;5057709;28;20530;-72
2024/01/11 06:12:58;;;;;;;130.15;119.25;;;-4.90;99.90;;;;;;5059265;28;20426;-73
2024/01/11 06:15:24;;;;;;;136.83;125.87;;;-4.80;99.90;;;;;;5080921;28;20032;-72
2024/01/11 06:17:50;;;;;;;132.27;121.77;;;-4.80;99.90;;;;;;5080120;28;20028;-73
2024/01/11 06:20:16;;;;;;;122.37;112.37;;;-4.70;99.90;;;;;;5069892;28;20064;-73
2024/01/11 06:22:41;;;;;;;141.50;130.53;;;-4.60;99.90;;;;;;5086447;28;20489;-73
2024/01/11 06:25:07;;;;;;;135.47;124.67;;;-4.60;99.90;;;;;;5080069;28;20032;-73
2024/01/11 06:27:33;;;;;;;124.47;113.57;;;-4.50;99.90;;;;;;5079614;28;20052;-74
2024/01/11 06:29:59;;;;;;;111.70;101.97;;;-4.50;99.90;;;;;;5078985;28;20287;-74
2024/01/11 06:32:24;;;;;;;127.13;115.97;;;-4.40;99.90;;;;;;5081346;28;20040;-74
2024/01/11 06:34:51;;;;;;;129.70;118.87;;;-4.40;99.90;;;;;;5071711;28;20047;-74
2024/01/11 06:37:17;;;;;;;178.32;165.30;;;-4.40;99.90;;;;;;5060415;28;20032;-74
2024/01/11 06:39:42;;;;;;;126.93;116.30;;;-4.30;99.90;;;;;;5079516;28;20122;-74
2024/01/11 06:42:08;;;;;;;125.67;114.80;;;-4.20;99.90;;;;;;5073687;28;20094;-74
2024/01/11 06:44:34;;;;;;;133.80;123.17;;;-4.20;99.90;;;;;;5062078;28;20115;-74
2024/01/11 06:47:01;;;;;;;139.50;128.43;;;-4.20;99.90;;;;;;5057538;28;20032;-74
2024/01/11 06:49:27;;;;;;;138.75;127.55;;;-4.10;99.90;;;;;;5072243;28;20054;-74
2024/01/11 06:51:53;;;;;;;144.63;132.07;;;-4.10;99.90;;;;;;5055964;28;20047;-74
2024/01/11 06:54:18;;;;;;;134.40;123.77;;;-4.10;99.90;;;;;;5079592;28;20040;-74
2024/01/11 06:56:44;;;;;;;126.83;115.97;;;-4.00;99.90;;;;;;5064334;28;20089;-74
2024/01/11 06:59:10;;;;;;;135.40;124.27;;;-4.00;99.90;;;;;;5074250;28;20036;-74
2024/01/11 07:01:36;;;;;;;146.47;134.53;;;-4.00;99.90;;;;;;5071503;28;20033;-74
2024/01/11 07:04:01;;;;;;;134.33;123.20;;;-3.90;99.90;;;;;;5059444;28;20036;-73
2024/01/11 07:06:27;;;;;;;139.00;127.63;;;-3.90;99.90;;;;;;5085610;28;20044;-73
2024/01/11 07:08:53;;;;;;;141.53;130.00;;;-3.90;99.90;;;;;;5062295;28;20059;-74
2024/01/11 07:11:19;;;;;;;141.37;130.50;;;-3.80;99.90;;;;;;5063744;28;20052;-74
2024/01/11 07:13:44;;;;;;;151.40;139.37;;;-3.80;99.90;;;;;;5082745;28;20051;-74
2024/01/11 07:16:10;;;;;;;152.17;140.20;;;-3.80;99.90;;;;;;5081379;28;20036;-75
2024/01/11 07:18:36;;;;;;;163.27;150.67;;;-3.70;99.90;;;;;;5060129;28;20482;-74
2024/01/11 07:21:02;;;;;;;146.20;134.10;;;-3.70;99.90;;;;;;5087523;28;20040;-74
2024/01/11 07:23:27;;;;;;;136.67;125.67;;;-3.70;99.90;;;;;;5077402;28;20032;-74
2024/01/11 07:25:53;;;;;;;142.47;131.07;;;-3.70;99.90;;;;;;5071232;28;20123;-74
2024/01/11 07:28:24;;;;;;;142.93;131.73;;;-3.70;99.90;;;;;;5071532;28;20078;-74
2024/01/11 07:30:51;;;;;;;142.57;131.52;;;-3.60;99.90;;;;;;5059562;28;20040;-74
2024/01/11 07:33:17;;;;;;;139.32;128.48;;;-3.60;99.90;;;;;;5074862;28;20055;-74
2024/01/11 07:35:42;;;;;;;144.70;133.27;;;-3.60;99.90;;;;;;5080128;28;20044;-74
2024/01/11 07:38:08;;;;;;;135.17;123.93;;;-3.50;99.90;;;;;;5077764;28;20043;-74
2024/01/11 07:40:34;;;;;;;127.13;117.03;;;-3.50;99.90;;;;;;5080184;28;20428;-73
2024/01/11 07:43:00;;;;;;;124.20;114.37;;;-3.40;99.90;;;;;;5069578;28;20044;-74
2024/01/11 07:45:25;;;;;;;126.47;116.10;;;-3.40;99.90;;;;;;5057768;28;20101;-74
2024/01/11 07:47:51;;;;;;;156.70;144.73;;;-3.30;99.90;;;;;;5071212;28;20036;-74
2024/01/11 07:50:17;;;;;;;139.10;127.77;;;-3.30;99.90;;;;;;5059326;28;20071;-74
2024/01/11 07:52:42;;;;;;;131.47;120.87;;;-3.30;99.90;;;;;;5068662;28;20089;-75
2024/01/11 07:55:10;;;;;;;131.53;121.57;;;-3.20;99.90;;;;;;5056890;28;20036;-74
2024/01/11 07:57:40;;;;;;;138.00;127.53;;;-3.20;99.90;;;;;;5079312;28;20159;-74
2024/01/11 08:00:06;;;;;;;143.52;132.63;;;-3.20;99.90;;;;;;5059998;28;20152;-74
2024/01/11 08:02:33;;;;;;;122.53;112.72;;;-3.10;99.90;;;;;;5075602;28;20048;-74
2024/01/11 08:05:01;;;;;;;137.00;126.47;;;-3.10;99.90;;;;;;5079579;28;20566;-75
2024/01/11 08:07:27;;;;;;;124.63;114.70;;;-3.10;99.90;;;;;;5075862;28;20039;-75
2024/01/11 08:09:53;;;;;;;123.22;113.15;;;-3.10;99.90;;;;;;5081304;28;20059;-75
2024/01/11 08:12:19;;;;;;;136.02;125.65;;;-3.00;99.90;;;;;;5084683;28;20052;-74
2024/01/11 08:14:46;;;;;;;114.83;105.10;;;-3.00;99.90;;;;;;5078078;28;20506;-74
2024/01/11 08:17:13;;;;;;;125.28;115.13;;;-3.00;99.90;;;;;;5074278;28;20127;-75
2024/01/11 08:19:39;;;;;;;124.75;114.82;;;-2.90;99.90;;;;;;5076965;28;20044;-74
2024/01/11 08:22:06;;;;;;;121.35;111.63;;;-2.90;99.90;;;;;;5080230;28;20547;-74
2024/01/11 08:24:32;;;;;;;111.25;101.65;;;-2.90;99.90;;;;;;5074793;28;20045;-74
2024/01/11 08:26:58;;;;;;;117.97;108.28;;;-2.80;99.90;;;;;;5076100;28;20046;-74
2024/01/11 08:29:23;;;;;;;143.70;132.57;;;-2.80;99.90;;;;;;5084709;28;20048;-74
2024/01/11 08:31:49;;;;;;;120.83;110.87;;;-2.70;99.90;;;;;;5061800;28;20040;-74
2024/01/11 08:34:15;;;;;;;116.77;107.17;;;-2.70;99.90;;;;;;5060171;28;20409;-75
2024/01/11 08:36:40;;;;;;;121.73;111.63;;;-2.70;99.90;;;;;;5074419;28;20060;-75
2024/01/11 08:39:07;;;;;;;106.17;96.87;;;-2.60;99.90;;;;;;5063265;28;20052;-74
2024/01/11 08:41:33;;;;;;;116.13;106.22;;;-2.60;99.90;;;;;;5077647;28;20495;-74
2024/01/11 08:43:59;;;;;;;123.32;112.80;;;-2.50;99.90;;;;;;5057376;28;20048;-75
2024/01/11 08:46:25;;;;;;;121.00;110.27;;;-2.50;99.90;;;;;;5076964;28;20040;-75
2024/01/11 08:48:56;;;;;;;115.07;105.78;;;-2.40;99.90;;;;;;5081839;28;20040;-75
2024/01/11 08:51:22;;;;;;;139.35;128.70;;;-2.30;99.90;;;;;;5077315;28;20052;-75
2024/01/11 08:53:48;;;;;;;130.30;119.77;;;-2.30;99.90;;;;;;5077582;28;20032;-75
2024/01/11 08:56:15;;;;;;;114.60;104.80;;;-2.20;99.90;;;;;;5087246;28;20181;-75
2024/01/11 08:58:41;;;;;;;120.75;111.35;;;-2.20;99.90;;;;;;5087711;28;20040;-75
2024/01/11 09:01:08;;;;;;;115.63;106.17;;;-2.10;99.90;;;;;;5059590;28;20489;-75
2024/01/11 09:03:37;;;;;;;134.45;123.72;;;-2.10;99.90;;;;;;5072947;28;20029;-75
2024/01/11 09:06:03;;;;;;;132.88;122.28;;;-2.00;99.90;;;;;;5087501;28;20041;-75
2024/01/11 09:08:29;;;;;;;118.55;108.93;;;-2.00;99.90;;;;;;5065718;28;20059;-75
2024/01/11 09:10:58;;;;;;;123.13;113.43;;;-1.90;99.90;;;;;;5060638;28;20048;-76
2024/01/11 09:13:23;;;;;;;107.72;98.90;;;-1.80;99.90;;;;;;5067798;28;20040;-75
2024/01/11 09:15:49;;;;;;;111.57;102.43;;;-1.80;99.90;;;;;;5079640;28;20101;-75
2024/01/11 09:18:15;;;;;;;118.10;108.47;;;-1.70;99.90;;;;;;5079720;28;20043;-76
2024/01/11 09:20:41;;;;;;;111.78;102.90;;;-1.60;99.90;;;;;;5065532;28;20456;-75
2024/01/11 09:23:08;;;;;;;98.87;90.50;;;-1.60;99.90;;;;;;5064829;28;20127;-76
2024/01/11 09:25:33;;;;;;;113.22;104.32;;;-1.50;99.90;;;;;;5082917;28;20040;-75
2024/01/11 09:27:59;;;;;;;118.23;109.50;;;-1.40;99.90;;;;;;5057323;28;20548;-75
2024/01/11 09:30:25;;;;;;;113.30;104.03;;;-1.40;99.90;;;;;;5067440;28;20047;-76
2024/01/11 09:32:52;;;;;;;107.13;98.97;;;-1.30;99.90;;;;;;5078031;28;20089;-76
2024/01/11 09:35:17;;;;;;;106.70;98.18;;;-1.20;99.90;;;;;;5058604;28;20189;-76
2024/01/11 09:37:45;;;;;;;101.10;93.27;;;-1.20;99.90;;;;;;5068593;28;20053;-76
2024/01/11 09:40:12;;;;;;;111.95;103.43;;;-1.10;99.90;;;;;;5061957;28;20123;-75
2024/01/11 09:42:38;;;;;;;113.45;104.95;;;-1.00;99.90;;;;;;5085021;28;20043;-76
2024/01/11 09:45:13;;;;;;;99.93;92.18;;;-0.90;99.90;;;;;;5070804;28;20497;-76
2024/01/11 09:47:39;;;;;;;110.80;102.43;;;-0.90;99.90;;;;;;5086611;28;20087;-76
2024/01/11 09:50:06;;;;;;;137.82;127.75;;;-0.80;99.90;;;;;;5087748;28;20040;-75
2024/01/11 09:52:32;;;;;;;117.75;108.90;;;-0.80;99.90;;;;;;5062679;28;20055;-76
2024/01/11 09:54:59;;;;;;;109.78;101.55;;;-0.70;99.90;;;;;;5070717;28;20040;-76
2024/01/11 09:57:29;;;;;;;84.88;77.55;;;-0.70;99.90;;;;;;5084660;28;20032;-76
2024/01/11 09:59:57;;;;;;;93.05;85.55;;;-0.70;99.90;;;;;;5078337;28;20036;-76
2024/01/11 10:02:24;;;;;;;82.63;75.80;;;-0.60;99.90;;;;;;5089536;28;20401;-76
2024/01/11 10:04:52;;;;;;;91.32;84.18;;;-0.50;99.90;;;;;;5087789;28;20040;-76
2024/01/11 10:07:21;;;;;;;81.82;74.93;;;-0.50;99.90;;;;;;5064861;28;20051;-75
2024/01/11 10:09:47;;;;;;;84.45;77.78;;;-0.40;99.90;;;;;;5078017;28;20040;-76
2024/01/11 10:12:13;;;;;;;93.63;86.22;;;-0.40;99.90;;;;;;5086831;28;20051;-76
2024/01/11 10:14:39;;;;;;;105.67;97.73;;;-0.30;99.90;;;;;;5082853;28;20105;-76
2024/01/11 10:17:05;;;;;;;112.07;103.73;;;-0.20;99.90;;;;;;5090037;28;20468;-76
2024/01/11 10:19:31;;;;;;;72.60;66.35;;;-0.20;99.90;;;;;;5071707;28;20037;-77
2024/01/11 10:21:58;;;;;;;77.63;70.97;;;-0.10;99.90;;;;;;5062581;28;20085;-77
2024/01/11 10:24:28;;;;;;;86.97;79.72;;;0.00;99.90;;;;;;5062325;28;20752;-75
2024/01/11 10:27:03;;;;;;;111.00;102.82;;;0.00;99.90;;;;;;5078742;28;20040;-76
2024/01/11 10:29:33;;;;;;;105.80;98.07;;;0.10;99.90;;;;;;5063077;28;20105;-77
2024/01/11 10:31:59;;;;;;;78.40;71.88;;;0.10;99.90;;;;;;5081203;28;20137;-77
2024/01/11 10:34:25;;;;;;;108.80;100.60;;;0.20;99.90;;;;;;5074618;28;20036;-76
2024/01/11 10:36:51;;;;;;;118.07;109.63;;;0.20;99.90;;;;;;5073667;28;20051;-76
2024/01/11 10:39:18;;;;;;;110.60;102.47;;;0.30;99.90;;;;;;5057459;28;20044;-77
2024/01/11 10:41:50;;;;;;;97.13;89.80;;;0.30;99.90;;;;;;5058223;28;20445;-77
2024/01/11 10:44:21;;;;;;;98.85;91.03;;;0.30;99.90;;;;;;5061819;28;20034;-76
2024/01/11 10:46:49;;;;;;;98.68;91.00;;;0.30;99.90;;;;;;5073525;28;20113;-77
2024/01/11 10:49:19;;;;;;;182.15;169.63;;;0.40;99.90;;;;;;5057799;28;20048;-77
2024/01/11 10:52:04;;;;;;;270.63;250.55;;;0.40;99.90;;;;;;5076855;28;20119;-77
2024/01/11 10:54:30;;;;;;;84.43;77.38;;;0.40;99.90;;;;;;5076960;28;20036;-77
2024/01/11 10:57:02;;;;;;;87.00;79.85;;;0.40;99.90;;;;;;5056988;28;20040;-77
2024/01/11 10:59:30;;;;;;;99.20;91.57;;;0.40;99.90;;;;;;5066100;28;20048;-76
2024/01/11 11:01:58;;;;;;;82.38;75.85;;;0.40;99.90;;;;;;5073171;28;20044;-76
2024/01/11 11:04:25;;;;;;;104.22;96.15;;;0.40;99.90;;;;;;5072442;28;20437;-76
2024/01/11 11:06:57;;;;;;;110.10;101.80;;;0.40;99.90;;;;;;5071871;28;20048;-76
2024/01/11 11:09:25;;;;;;;94.93;87.70;;;0.50;99.90;;;;;;5075469;28;20049;-76
2024/01/11 11:11:53;;;;;;;116.07;107.93;;;0.50;99.90;;;;;;5056854;28;20135;-75
2024/01/11 11:14:20;;;;;;;89.15;82.25;;;0.50;99.90;;;;;;5056637;28;20079;-76
2024/01/11 11:16:46;;;;;;;101.90;94.30;;;0.60;99.90;;;;;;5074816;28;20398;-76
2024/01/11 11:19:13;;;;;;;107.73;99.97;;;0.60;99.90;;;;;;5076808;28;20046;-76
2024/01/11 11:21:45;;;;;;;125.72;116.95;;;0.70;99.90;;;;;;5080713;28;20517;-76
2024/01/11 11:24:12;;;;;;;118.18;109.82;;;0.70;99.90;;;;;;5076470;28;20123;-77
2024/01/11 11:26:38;;;;;;;123.97;115.32;;;0.70;99.90;;;;;;5057724;28;20524;-76
2024/01/11 11:29:05;;;;;;;155.17;144.53;;;0.80;99.90;;;;;;5086369;28;20036;-76
2024/01/11 11:31:53;;;;;;;74.95;69.07;;;0.80;99.90;;;;;;5074915;28;20059;-76
2024/01/11 11:34:20;;;;;;;143.63;133.27;;;0.90;99.90;;;;;;5088372;28;20406;-76
2024/01/11 11:36:54;;;;;;;81.07;74.60;;;0.90;99.90;;;;;;5083582;28;20044;-75
2024/01/11 11:39:20;;;;;;;97.07;90.15;;;1.00;99.90;;;;;;5073571;28;20048;-76
2024/01/11 11:41:49;;;;;;;79.53;73.27;;;1.00;99.90;;;;;;5065192;28;20462;-75
2024/01/11 11:44:16;;;;;;;84.63;77.97;;;1.00;99.90;;;;;;5068204;28;20055;-77
2024/01/11 11:46:43;;;;;;;116.55;108.20;;;1.00;99.90;;;;;;5091112;28;20047;-76
2024/01/11 11:49:10;;;;;;;122.95;114.47;;;1.10;99.90;;;;;;5080529;28;20143;-75
2024/01/11 11:51:40;;;;;;;81.72;75.55;;;1.10;99.90;;;;;;5087758;28;20044;-76
2024/01/11 11:54:09;;;;;;;100.22;92.43;;;1.10;99.90;;;;;;5068300;28;20107;-75
2024/01/11 11:56:36;;;;;;;130.40;121.30;;;1.20;99.90;;;;;;5064062;28;20048;-75
2024/01/11 11:59:03;;;;;;;109.82;102.13;;;1.20;99.90;;;;;;5088242;28;20489;-76
2024/01/11 12:01:31;;;;;;;75.95;70.18;;;1.30;99.90;;;;;;5084062;28;20032;-76
2024/01/11 12:03:57;;;;;;;86.57;79.72;;;1.30;99.90;;;;;;5084659;28;20058;-75
2024/01/11 12:06:24;;;;;;;130.00;121.28;;;1.40;99.90;;;;;;5077210;28;20054;-75
2024/01/11 12:08:52;;;;;;;155.07;144.38;;;1.40;99.90;;;;;;5070504;28;20040;-75
2024/01/11 12:11:20;;;;;;;100.88;93.80;;;1.40;99.90;;;;;;5084174;28;20060;-76